KMCN

Middle Georgia Regional Airport

Macon, Georgia, USA
METAR KMCN 191053Z AUTO 00000KT 10SM CLR 21/20 A2996 RMK AO2 SLP141 T02060200
Observed Flight Rules
Sep-19 @ 10:53 UTC (45 minutes ago) Visual Flight Rules
Visibility Clouds
10 miles
  • Clear skies
Temperatures Readings
Current 21°C / 70°F
Dewpoint 20°C / 68°F
Humidity 94%
Altimeter 29.96" Hg
Pressure 1014.1 hPa
Elevation 109
METAR KMCN 191053Z AUTO 00000KT 10SM CLR 21/20 A2996 RMK AO2 SLP141 T02060200
Observed Flight Rules
Sep-19 @ 10:53 UTC
(45 minutes ago)
VFR
Clouds
  • Clear skies
Temperature Dewpoint
21°C / 70°F 20°C / 68°F
Humidity Altimeter Pressure
94% 29.96" Hg 1014.1 hPa